Detalii statie TRANSAVIA GRUP [00001CF7]

Toti senzorii

Date Temperatura solului [C]Precipitatii [mm]Voltaj baterie [mV]HC Air temperature [C]HC Relative humidity [%]Punctul de roua [C]
medieminmaxsumaultimamedieminmaxmediemediemin
2020-01-21 22:00:00 -0.2 -0.3 -0.1 0 6640 -4.45 -4.97 -3.56 0 0 0
2020-01-21 23:00:00 -0.2 -0.3 -0.2 0 6610 -5.64 -6.28 -4.94 0 0 0
2020-01-22 00:00:00 -0.2 -0.3 -0.2 0 6620 -6.71 -7.41 -6.21 0 0 0
2020-01-22 01:00:00 -0.2 -0.5 -0.2 0 6600 -6.38 -7.39 -5.7 0 0 0
2020-01-22 02:00:00 -0.2 -0.4 -0.2 0 6610 -5.59 -6.06 -5.35 0 0 0
2020-01-22 03:00:00 -0.2 -0.4 -0.2 0 6600 -6.5 -7.31 -5.92 0 0 0
2020-01-22 04:00:00 -0.2 -0.3 -0.2 0 6590 -7.43 -7.91 -7.13 0 0 0
2020-01-22 05:00:00 -0.2 -0.3 -0.1 0 6590 -8.25 -8.82 -7.57 0 0 0
2020-01-22 06:00:00 -0.2 -0.3 -0.2 0 6610 -8.9 -9.5 -8.34 0 0 0
2020-01-22 07:00:00 -0.2 -0.4 -0.2 0 6590 -9.14 -9.72 -8.55 0 0 0
2020-01-22 08:00:00 -0.3 -0.4 -0.3 0 6610 -9.91 -10.25 -9.61 0 0 0
2020-01-22 09:00:00 -0.3 -0.5 -0.3 0 6660 -9.79 -10.65 -8.99 0 0 0
2020-01-22 10:00:00 -0.3 -0.4 -0.3 0 7118 -7 -8.95 -5.55 0 0 0
2020-01-22 11:00:00 -0.3 -0.4 -0.3 0 7098 -3.58 -5.38 -2.43 0 0 0
2020-01-22 12:00:00 -0.3 -0.6 -0.3 0 7108 -1.2 -2.27 -0.23 0 0 0
2020-01-22 13:00:00 -0.3 -0.4 -0.2 0 7080 -0.24 -0.95 0.63 0 0 0
2020-01-22 14:00:00 -0.3 -0.4 -0.2 0 7138 0.35 -0.13 1.09 0 0 0
2020-01-22 15:00:00 -0.3 -0.4 -0.3 0 7118 0.54 0.09 1.45 0 0 0
2020-01-22 16:00:00 -0.3 -0.4 -0.3 0 7020 0.32 0.11 0.58 0 0 0
2020-01-22 17:00:00 -0.3 -0.5 -0.3 0 6952 -0.62 -1.69 0.15 0 0 0
2020-01-22 18:00:00 -0.3 -0.4 -0.3 0 6914 -2.49 -3.06 -1.69 0 0 0
2020-01-22 19:00:00 -0.3 -0.4 -0.3 0 6894 -2.62 -3.05 -2.27 0 0 0
2020-01-22 20:00:00 -0.3 -0.4 -0.3 0 6864 -3.53 -5.01 -2.45 0 0 0
2020-01-22 21:00:00 -0.3 -0.4 -0.2 0 6854 -4.68 -5.48 -3.47 0 0 0
2020-01-22 22:00:00 -0.3 -0.4 -0.3 0 6834 -4 -4.22 -3.85 0 0 0
2020-01-22 23:00:00 -0.3 -0.4 -0.3 0 6834 -3.31 -3.78 -3.06 0 0 0
2020-01-23 00:00:00 -0.3 -0.5 -0.3 0 6834 -2.4 -2.69 -2.23 0 0 0
2020-01-23 01:00:00 -0.4 -0.6 -0.3 0 6834 -1.94 -2.11 -1.59 0 0 0
2020-01-23 02:00:00 -0.3 -0.4 -0.3 0 6834 -1.96 -2.08 -1.9 0 0 0
2020-01-23 03:00:00 -0.3 -0.5 -0.3 0 6826 -2 -2.06 -1.91 0 0 0
2020-01-23 04:00:00 -0.4 -0.5 -0.3 0 6816 -2.09 -2.75 -1.59 0 0 0
2020-01-23 05:00:00 -0.3 -0.5 -0.3 0 6806 -2.68 -2.88 -2.5 0 0 0
2020-01-23 06:00:00 -0.4 -0.5 -0.4 0 6806 -2.33 -2.85 -1.99 0 0 0
2020-01-23 07:00:00 -0.4 -0.5 -0.4 0 6806 -1.97 -2.07 -1.89 0 0 0
2020-01-23 08:00:00 -0.4 -0.5 -0.4 0 6806 -2.03 -2.12 -1.93 0 0 0
2020-01-23 09:00:00 -0.4 -0.5 -0.4 0 6826 -1.89 -2.18 -1.49 0 0 0
2020-01-23 10:00:00 -0.4 -0.5 -0.4 0 6922 -1.01 -1.41 -0.38 0 0 0
2020-01-23 11:00:00 -0.4 -0.5 -0.4 0 7148 0.09 -0.36 0.55 0 0 0
2020-01-23 12:00:00 -0.4 -0.5 -0.4 0 7274 1.76 0.98 2.19 0 0 0
2020-01-23 13:00:00 -0.4 -0.5 -0.4 0 7304 2.25 1.84 2.68 0 0 0
2020-01-23 14:00:00 -0.4 -0.6 -0.3 0 7314 2.92 2.74 3.14 0 0 0
2020-01-23 15:00:00 -0.4 -0.5 -0.3 0 7314 3.19 2.86 3.49 0 0 0
2020-01-23 16:00:00 -0.3 -0.4 -0.3 0 7128 2.79 2.22 3.24 0 0 0
2020-01-23 17:00:00 -0.3 -0.4 -0.3 0 7030 1.24 0.18 2.12 0 0 0
2020-01-23 18:00:00 -0.3 -0.4 -0.3 0 7000 -1.21 -2.99 -0.05 0 0 0
2020-01-23 19:00:00 -0.3 -0.4 -0.3 0 6972 -2.8 -4.06 -1.69 0 0 0
2020-01-23 20:00:00 -0.3 -0.5 -0.3 0 6952 -4.37 -5.25 -3.49 0 0 0
2020-01-23 21:00:00 -0.3 -0.5 -0.3 0 6914 -5.14 -5.85 -4.36 0 0 0